Time;durP1;ratioP1;P1;durP2;ratioP2;P2;SDS_P1;SDS_P2;PMS_P1;PMS_P2;Temp;Humidity;BMP_temperature;BMP_pressure;BME280_temperature;BME280_humidity;BME280_pressure;Samples;Min_cycle;Max_cycle;Signal;HPM_P1;HPM_P2
2023/09/11 00:00:22;;;;;;;12.70;11.70;;;22.50;99.90;;;;;;5034515;28;20460;-83
2023/09/11 00:02:49;;;;;;;12.70;11.50;;;22.40;99.90;;;;;;5031547;28;20469;-87
2023/09/11 00:05:24;;;;;;;13.03;11.93;;;22.40;99.90;;;;;;5026725;28;20538;-86
2023/09/11 00:07:51;;;;;;;12.47;11.27;;;22.40;99.90;;;;;;5021339;28;20497;-84
2023/09/11 00:10:56;;;;;;;12.30;11.30;;;22.40;99.90;;;;;;5032859;28;20843;-83
2023/09/11 00:13:37;;;;;;;11.90;11.00;;;22.40;99.90;;;;;;5027972;28;20468;-84
2023/09/11 00:16:10;;;;;;;11.43;10.53;;;22.40;99.90;;;;;;5028165;28;20493;-84
2023/09/11 00:21:41;;;;;;;12.23;11.20;;;22.30;99.90;;;;;;5019676;28;20468;-86
2023/09/11 00:24:12;;;;;;;11.17;10.17;;;22.30;99.90;;;;;;5004868;28;20519;-84
2023/09/11 00:26:42;;;;;;;11.87;10.97;;;22.30;99.90;;;;;;5030927;28;20503;-84
2023/09/11 00:29:13;;;;;;;10.53;9.63;;;22.20;99.90;;;;;;5027883;28;20470;-88
2023/09/11 00:31:51;;;;;;;12.17;11.27;;;22.20;99.90;;;;;;5021869;28;20465;-83
2023/09/11 00:34:24;;;;;;;11.70;10.80;;;22.20;99.90;;;;;;5008309;28;20504;-83
2023/09/11 00:36:54;;;;;;;11.93;11.03;;;22.20;99.90;;;;;;5017354;28;20473;-86
2023/09/11 00:39:35;;;;;;;13.03;11.73;;;22.20;99.90;;;;;;5018316;28;20885;-87
2023/09/11 00:44:54;;;;;;;12.10;11.10;;;22.10;99.90;;;;;;4991305;28;20471;-83
2023/09/11 00:47:33;;;;;;;;;;;;;;;;;;;;;
2023/09/11 00:50:12;;;;;;;11.90;11.00;;;22.10;99.90;;;;;;5007919;28;20461;-87
2023/09/11 00:53:08;;;;;;;13.80;12.70;;;22.10;99.90;;;;;;5013824;28;20557;-83
2023/09/11 00:55:36;;;;;;;12.50;11.60;;;22.10;99.90;;;;;;5026154;28;20537;-83
2023/09/11 00:58:20;;;;;;;;;;;;;;;;;;;;;
2023/09/11 01:00:57;;;;;;;12.73;11.70;;;22.00;99.90;;;;;;5003123;28;20479;-83
2023/09/11 01:03:26;;;;;;;11.17;10.13;;;22.00;99.90;;;;;;5018683;28;20552;-87
2023/09/11 01:05:58;;;;;;;12.43;11.43;;;22.00;99.90;;;;;;4991299;28;20579;-83
2023/09/11 01:08:44;;;;;;;13.50;12.30;;;22.00;99.90;;;;;;5017347;28;20551;-88
2023/09/11 01:11:23;;;;;;;11.97;11.00;;;22.00;99.90;;;;;;5022991;28;20919;-83
2023/09/11 01:14:00;;;;;;;12.93;11.83;;;22.00;99.90;;;;;;5021802;28;20468;-86
2023/09/11 01:16:40;;;;;;;13.33;12.33;;;21.90;99.90;;;;;;5009375;28;20460;-83
2023/09/11 01:19:33;;;;;;;13.43;12.40;;;21.90;99.90;;;;;;5015972;28;20473;-83
2023/09/11 01:22:57;;;;;;;13.53;12.37;;;21.90;99.90;;;;;;5012209;28;20522;-86
2023/09/11 01:26:11;;;;;;;15.27;13.77;;;21.90;99.90;;;;;;5016502;28;20986;-87
2023/09/11 01:29:11;;;;;;;12.90;11.80;;;21.90;99.90;;;;;;5002141;28;20503;-84
2023/09/11 01:31:39;;;;;;;13.10;12.10;;;21.80;99.90;;;;;;5023110;28;20476;-87
2023/09/11 01:34:12;;;;;;;13.63;12.43;;;21.80;99.90;;;;;;5020064;28;20884;-83
2023/09/11 01:36:40;;;;;;;13.30;12.20;;;21.80;99.90;;;;;;5021952;28;20476;-87
2023/09/11 01:39:08;;;;;;;12.87;11.80;;;21.80;99.90;;;;;;5016287;28;20466;-87
2023/09/11 01:41:40;;;;;;;14.10;12.90;;;21.80;99.90;;;;;;5017086;28;20472;-83
2023/09/11 01:44:14;;;;;;;12.67;11.67;;;21.80;99.90;;;;;;5015294;28;20508;-83
2023/09/11 01:46:42;;;;;;;14.50;13.30;;;21.80;99.90;;;;;;5019977;28;20472;-86
2023/09/11 01:49:11;;;;;;;13.07;11.87;;;21.70;99.90;;;;;;5016613;28;20503;-84
2023/09/11 01:54:35;;;;;;;11.47;10.60;;;21.70;99.90;;;;;;4987798;28;20469;-84
2023/09/11 01:57:03;;;;;;;12.60;11.70;;;21.70;99.90;;;;;;5027763;28;20538;-87
2023/09/11 01:59:34;;;;;;;12.60;11.60;;;21.70;99.90;;;;;;5020427;28;20820;-88
2023/09/11 02:02:02;;;;;;;12.43;11.33;;;21.70;99.90;;;;;;5012306;28;20476;-87
2023/09/11 02:04:43;;;;;;;13.00;11.90;;;21.70;99.90;;;;;;5028325;28;20958;-82
2023/09/11 02:07:14;;;;;;;13.43;12.43;;;21.60;99.90;;;;;;5016111;28;20559;-87
2023/09/11 02:09:42;;;;;;;13.73;12.63;;;21.60;99.90;;;;;;5023961;28;20472;-84
2023/09/11 02:12:36;;;;;;;13.00;12.00;;;21.60;99.90;;;;;;5015003;28;20472;-87
2023/09/11 02:15:09;;;;;;;14.87;13.57;;;21.60;99.90;;;;;;5017601;28;20965;-84
2023/09/11 02:17:40;;;;;;;13.13;12.07;;;21.60;99.90;;;;;;5016309;28;20457;-84
2023/09/11 02:20:11;;;;;;;14.10;12.93;;;21.60;99.90;;;;;;5011019;28;20476;-87
2023/09/11 02:22:41;;;;;;;14.60;13.50;;;21.60;99.90;;;;;;5018011;28;20861;-87
2023/09/11 02:25:14;;;;;;;15.90;14.63;;;21.60;99.90;;;;;;5020713;28;20543;-87
2023/09/11 02:27:47;;;;;;;15.03;13.73;;;21.60;99.90;;;;;;5001285;28;20867;-83
2023/09/11 02:30:41;;;;;;;13.90;12.80;;;21.60;99.90;;;;;;5029437;28;20504;-83
2023/09/11 02:33:24;;;;;;;13.47;12.47;;;21.60;99.90;;;;;;5019460;28;20474;-86
2023/09/11 02:36:08;;;;;;;13.77;12.57;;;21.50;99.90;;;;;;5017509;28;20469;-87
2023/09/11 02:39:07;;;;;;;13.70;12.67;;;21.50;99.90;;;;;;5013302;28;20472;-85
2023/09/11 02:41:49;;;;;;;13.17;12.17;;;21.50;99.90;;;;;;5018236;28;20857;-84
2023/09/11 02:44:25;;;;;;;12.90;11.90;;;21.50;99.90;;;;;;5010543;28;20496;-83
2023/09/11 02:47:05;;;;;;;13.80;12.70;;;21.50;99.90;;;;;;5016166;28;20463;-87
2023/09/11 02:49:32;;;;;;;12.37;11.47;;;21.50;99.90;;;;;;5017762;28;20475;-87
2023/09/11 02:52:13;;;;;;;14.37;13.27;;;21.50;99.90;;;;;;5013313;28;20471;-84
2023/09/11 02:54:47;;;;;;;13.90;12.90;;;21.50;99.90;;;;;;5008034;28;20627;-83
2023/09/11 02:57:14;;;;;;;16.67;15.37;;;21.50;99.90;;;;;;5003100;28;20501;-85
2023/09/11 02:59:47;;;;;;;15.60;14.30;;;21.50;99.90;;;;;;5016145;28;20535;-84
2023/09/11 03:02:18;;;;;;;14.00;12.80;;;21.40;99.90;;;;;;5022646;28;20472;-83
2023/09/11 03:04:45;;;;;;;15.53;14.20;;;21.40;99.90;;;;;;5003218;28;20472;-83
2023/09/11 03:07:17;;;;;;;15.23;13.87;;;21.40;99.90;;;;;;5015653;28;20492;-86
2023/09/11 03:09:47;;;;;;;14.10;13.10;;;21.40;99.90;;;;;;5017988;28;20555;-87
2023/09/11 03:12:15;;;;;;;13.20;12.20;;;21.40;99.90;;;;;;5019477;28;20535;-84
2023/09/11 03:14:51;;;;;;;14.50;13.40;;;21.40;99.90;;;;;;5013914;28;20523;-83
2023/09/11 03:17:19;;;;;;;14.07;12.97;;;21.40;99.90;;;;;;5017227;28;20534;-84
2023/09/11 03:19:46;;;;;;;15.43;14.10;;;21.30;99.90;;;;;;5017502;28;20492;-83
2023/09/11 03:22:14;;;;;;;15.73;14.50;;;21.30;99.90;;;;;;5019119;28;20464;-87
2023/09/11 03:24:41;;;;;;;14.80;13.60;;;21.30;99.90;;;;;;5015660;28;20570;-87
2023/09/11 03:27:21;;;;;;;15.53;14.23;;;21.30;99.90;;;;;;5023394;28;20535;-87
2023/09/11 03:29:52;;;;;;;14.77;13.53;;;21.30;99.90;;;;;;5016662;28;20469;-88
2023/09/11 03:32:21;;;;;;;16.07;14.67;;;21.30;99.90;;;;;;5015247;28;20484;-82
2023/09/11 03:34:59;;;;;;;14.53;13.33;;;21.30;99.90;;;;;;5017964;28;20465;-88
2023/09/11 03:37:26;;;;;;;16.43;14.93;;;21.30;99.90;;;;;;5019361;28;20469;-84
2023/09/11 03:39:59;;;;;;;14.13;13.07;;;21.30;99.90;;;;;;5019188;28;20465;-83
2023/09/11 03:42:26;;;;;;;13.90;12.80;;;21.30;99.90;;;;;;5019766;28;20993;-84
2023/09/11 03:44:53;;;;;;;14.80;13.60;;;21.30;99.90;;;;;;5019301;28;20484;-83
2023/09/11 03:47:25;;;;;;;15.63;14.37;;;21.20;99.90;;;;;;5026869;28;20504;-83
2023/09/11 03:49:57;;;;;;;16.00;14.70;;;21.20;99.90;;;;;;5023879;28;20476;-82
2023/09/11 03:52:24;;;;;;;16.53;15.17;;;21.30;99.90;;;;;;5025392;28;20475;-83
2023/09/11 03:57:41;;;;;;;14.23;13.07;;;21.20;99.90;;;;;;5019238;28;20453;-88
2023/09/11 04:00:12;;;;;;;17.63;16.13;;;21.20;99.90;;;;;;5037351;28;20460;-87
2023/09/11 04:02:41;;;;;;;19.20;16.93;;;21.20;99.90;;;;;;5031379;28;20463;-87
2023/09/11 04:05:08;;;;;;;17.50;16.03;;;21.20;99.90;;;;;;5025750;28;20460;-82
2023/09/11 04:07:35;;;;;;;14.93;13.63;;;21.20;99.90;;;;;;5017944;28;20838;-83
2023/09/11 04:10:13;;;;;;;16.73;15.33;;;21.20;99.90;;;;;;5032188;28;20484;-84
2023/09/11 04:12:42;;;;;;;17.87;16.33;;;21.20;99.90;;;;;;5020540;28;20480;-83
2023/09/11 04:15:10;;;;;;;17.17;15.67;;;21.20;99.90;;;;;;5014698;28;20473;-87
2023/09/11 04:17:37;;;;;;;15.50;14.30;;;21.10;99.90;;;;;;5026765;28;20473;-88
2023/09/11 04:20:09;;;;;;;15.83;14.53;;;21.20;99.90;;;;;;5018373;28;20989;-87
2023/09/11 04:22:36;;;;;;;16.67;15.40;;;21.20;99.90;;;;;;5020881;28;20480;-83
2023/09/11 04:25:07;;;;;;;16.10;14.70;;;21.10;99.90;;;;;;5018093;28;20483;-83
2023/09/11 04:27:42;;;;;;;15.70;14.40;;;21.10;99.90;;;;;;5023196;28;20480;-87
2023/09/11 04:30:14;;;;;;;15.67;14.33;;;21.10;99.90;;;;;;5033227;28;20479;-82
2023/09/11 04:32:41;;;;;;;16.30;14.90;;;21.10;99.90;;;;;;5022680;28;20453;-87
2023/09/11 04:35:14;;;;;;;16.27;15.03;;;21.10;99.90;;;;;;5016113;28;20469;-87
2023/09/11 04:37:42;;;;;;;15.83;14.53;;;21.10;99.90;;;;;;5038198;28;20465;-82
2023/09/11 04:40:12;;;;;;;15.73;14.33;;;21.10;99.90;;;;;;5022131;28;20538;-84
2023/09/11 04:42:39;;;;;;;17.13;15.53;;;21.10;99.90;;;;;;5020760;28;20477;-87
2023/09/11 04:45:08;;;;;;;16.63;15.13;;;21.10;99.90;;;;;;5024469;28;20473;-87
2023/09/11 04:47:45;;;;;;;15.27;13.97;;;21.10;99.90;;;;;;5031094;28;20468;-86
2023/09/11 04:50:14;;;;;;;16.83;15.43;;;21.10;99.90;;;;;;5026635;28;20485;-83
2023/09/11 04:52:41;;;;;;;16.27;14.63;;;21.10;99.90;;;;;;5027799;28;20539;-86
2023/09/11 04:55:14;;;;;;;17.17;15.70;;;21.10;99.90;;;;;;5031432;28;20473;-87
2023/09/11 04:57:48;;;;;;;15.33;14.13;;;21.10;99.90;;;;;;5018817;28;20508;-88
2023/09/11 05:00:20;;;;;;;18.27;16.73;;;21.10;99.90;;;;;;5027267;28;20451;-84
2023/09/11 05:02:48;;;;;;;14.83;13.53;;;21.10;99.90;;;;;;5023055;28;20480;-88
2023/09/11 05:05:23;;;;;;;16.90;15.50;;;21.10;99.90;;;;;;5026834;28;20499;-84
2023/09/11 05:08:07;;;;;;;19.40;17.80;;;21.10;99.90;;;;;;5029123;28;20539;-83
2023/09/11 05:10:36;;;;;;;19.87;18.07;;;21.10;99.90;;;;;;5029846;28;20484;-87
2023/09/11 05:13:03;;;;;;;20.23;18.23;;;21.10;99.90;;;;;;5029530;28;20469;-88
2023/09/11 05:15:30;;;;;;;19.97;18.20;;;21.10;99.90;;;;;;5017986;28;20477;-84
2023/09/11 05:18:01;;;;;;;20.87;18.77;;;21.10;99.90;;;;;;5033941;28;20518;-86
2023/09/11 05:20:30;;;;;;;19.50;17.80;;;21.10;99.90;;;;;;5027103;28;20479;-83
2023/09/11 05:22:59;;;;;;;17.67;16.10;;;21.10;99.90;;;;;;5031319;28;20496;-81
2023/09/11 05:25:32;;;;;;;18.20;16.60;;;21.10;99.90;;;;;;5019944;28;20527;-85
2023/09/11 05:28:07;;;;;;;17.77;16.27;;;21.20;99.90;;;;;;5030552;28;20472;-84
2023/09/11 05:30:50;;;;;;;18.33;16.63;;;21.20;99.90;;;;;;5023024;28;20499;-83
2023/09/11 05:33:20;;;;;;;17.53;15.77;;;21.20;99.90;;;;;;5019940;28;20472;-86
2023/09/11 05:35:51;;;;;;;17.30;15.70;;;21.20;99.90;;;;;;5036548;28;20504;-86
2023/09/11 05:38:18;;;;;;;16.30;14.83;;;21.20;99.90;;;;;;5012772;28;20476;-84
2023/09/11 05:40:49;;;;;;;16.80;15.47;;;21.20;99.90;;;;;;5026532;28;20502;-83
2023/09/11 05:43:30;;;;;;;16.10;14.70;;;21.30;99.90;;;;;;5024689;28;20955;-87
2023/09/11 05:46:06;;;;;;;19.33;17.33;;;21.30;99.90;;;;;;5027611;28;20469;-86
2023/09/11 05:48:34;;;;;;;17.37;15.87;;;21.30;99.90;;;;;;5020859;28;20556;-83
2023/09/11 05:51:18;;;;;;;18.80;17.17;;;21.30;99.90;;;;;;5034064;28;20466;-82
2023/09/11 05:54:05;;;;;;;18.67;16.80;;;21.30;99.90;;;;;;5017873;28;20857;-83
2023/09/11 05:56:35;;;;;;;20.17;18.30;;;21.30;99.90;;;;;;5022887;28;20870;-87
2023/09/11 05:59:02;;;;;;;19.30;17.30;;;21.40;99.90;;;;;;5023992;28;20945;-84
2023/09/11 06:01:29;;;;;;;19.83;18.13;;;21.40;99.90;;;;;;5018531;28;20575;-83
2023/09/11 06:03:56;;;;;;;20.27;18.37;;;21.40;99.90;;;;;;5023608;28;20468;-88
2023/09/11 06:06:25;;;;;;;18.40;16.60;;;21.50;99.90;;;;;;5016273;28;20485;-84
2023/09/11 06:08:57;;;;;;;17.10;15.50;;;21.50;99.90;;;;;;5016715;28;20473;-87
2023/09/11 06:11:24;;;;;;;18.80;17.20;;;21.50;99.90;;;;;;5017361;28;20472;-83
2023/09/11 06:13:55;;;;;;;18.40;16.70;;;21.60;99.90;;;;;;5015903;28;20784;-86
2023/09/11 06:16:25;;;;;;;19.10;17.30;;;21.60;99.90;;;;;;5018183;28;20471;-86
2023/09/11 06:18:58;;;;;;;17.67;16.17;;;21.60;99.90;;;;;;5015905;28;20511;-87
2023/09/11 06:21:31;;;;;;;20.77;18.67;;;21.70;99.90;;;;;;5006687;28;20499;-87
2023/09/11 06:24:14;;;;;;;20.80;18.77;;;21.70;99.90;;;;;;5018638;28;20477;-83
2023/09/11 06:26:43;;;;;;;20.50;18.53;;;21.70;99.90;;;;;;5009018;28;20563;-83
2023/09/11 06:29:12;;;;;;;20.63;18.60;;;21.80;99.90;;;;;;5019671;28;20466;-87
2023/09/11 06:31:42;;;;;;;19.13;17.20;;;21.80;99.90;;;;;;5006172;28;20476;-84
2023/09/11 06:34:09;;;;;;;21.43;19.00;;;21.90;99.90;;;;;;5022365;28;20488;-82
2023/09/11 06:36:41;;;;;;;21.83;19.57;;;21.90;99.90;;;;;;5016830;28;20555;-83
2023/09/11 06:39:28;;;;;;;;;;;;;;;;;;;;;
2023/09/11 06:42:05;;;;;;;24.23;21.87;;;22.00;99.90;;;;;;5012513;28;20831;-82
2023/09/11 06:47:19;;;;;;;24.77;22.47;;;22.10;99.90;;;;;;5010499;28;20844;-82
2023/09/11 06:49:47;;;;;;;26.33;23.83;;;22.10;99.90;;;;;;5021931;28;20534;-87
2023/09/11 06:52:46;;;;;;;24.90;22.70;;;22.20;99.90;;;;;;5011500;28;20488;-83
2023/09/11 06:55:23;;;;;;;22.87;20.70;;;22.20;99.90;;;;;;5014613;28;20483;-86
2023/09/11 06:58:13;;;;;;;26.80;24.30;;;22.30;99.90;;;;;;5028342;28;20525;-83
2023/09/11 07:00:46;;;;;;;30.27;27.30;;;22.30;99.90;;;;;;5017457;28;20516;-86
2023/09/11 07:03:19;;;;;;;28.83;26.10;;;22.40;99.90;;;;;;5014722;28;20476;-87
2023/09/11 07:06:06;;;;;;;25.43;23.10;;;22.40;99.90;;;;;;5015445;28;20497;-84
2023/09/11 07:08:55;;;;;;;23.53;21.23;;;22.50;99.90;;;;;;5010365;28;20467;-87
2023/09/11 07:11:31;;;;;;;24.37;21.97;;;22.50;99.90;;;;;;5016518;28;20484;-87
2023/09/11 07:14:06;;;;;;;21.10;19.20;;;22.50;99.90;;;;;;5021067;28;20498;-83
2023/09/11 07:16:44;;;;;;;19.67;17.77;;;22.60;99.90;;;;;;5023139;28;20452;-88
2023/09/11 07:19:23;;;;;;;19.50;17.53;;;22.60;99.90;;;;;;5021427;28;20571;-87
2023/09/11 07:22:11;;;;;;;;;;;;;;;;;;;;;
2023/09/11 07:24:49;;;;;;;23.17;19.20;;;22.70;99.90;;;;;;5015854;28;20469;-88
2023/09/11 07:27:20;;;;;;;22.60;20.10;;;22.80;99.90;;;;;;5016512;28;20530;-88
2023/09/11 07:29:48;;;;;;;20.87;18.70;;;22.80;99.90;;;;;;5018225;28;20482;-88
2023/09/11 07:32:18;;;;;;;23.10;20.90;;;22.80;99.90;;;;;;5017222;28;20474;-89
2023/09/11 07:34:53;;;;;;;24.17;21.87;;;22.90;99.90;;;;;;5164083;22;20479;-88
2023/09/11 07:37:21;;;;;;;21.57;19.37;;;22.90;99.90;;;;;;5059660;28;21187;-87
2023/09/11 07:39:48;;;;;;;19.83;17.57;;;22.90;99.90;;;;;;5062181;28;20475;-84
2023/09/11 07:42:19;;;;;;;19.30;17.60;;;23.00;99.90;;;;;;5062792;28;20459;-88
2023/09/11 07:44:56;;;;;;;18.40;16.60;;;23.00;99.90;;;;;;5065582;28;21058;-88
2023/09/11 07:47:25;;;;;;;17.63;16.00;;;23.10;99.90;;;;;;5065464;28;20519;-84
2023/09/11 07:49:53;;;;;;;17.90;16.30;;;23.10;99.90;;;;;;5065865;28;20872;-83
2023/09/11 07:52:20;;;;;;;15.77;14.37;;;23.20;99.90;;;;;;5056017;28;20477;-87
2023/09/11 07:54:47;;;;;;;16.03;14.63;;;23.30;99.90;;;;;;5067292;28;20471;-84
2023/09/11 07:57:21;;;;;;;17.50;15.90;;;23.30;99.90;;;;;;5054835;28;20538;-88
2023/09/11 07:59:50;;;;;;;17.50;16.00;;;23.40;99.90;;;;;;5057538;28;20498;-88
2023/09/11 08:05:06;;;;;;;16.10;14.47;;;23.50;99.90;;;;;;5058259;28;20460;-88
2023/09/11 08:07:52;;;;;;;;;;;;;;;;;;;;;
2023/09/11 08:10:22;;;;;;;15.93;14.57;;;23.60;99.90;;;;;;5058909;28;20522;-87
2023/09/11 08:12:54;;;;;;;14.53;13.17;;;23.70;99.90;;;;;;5059303;28;20502;-88
2023/09/11 08:15:38;;;;;;;14.27;12.97;;;23.80;99.90;;;;;;5122335;22;20878;-88
2023/09/11 08:18:09;;;;;;;14.20;13.00;;;23.80;99.90;;;;;;5113486;27;20456;-83
2023/09/11 08:20:37;;;;;;;15.80;14.30;;;23.90;99.90;;;;;;5116962;28;20533;-84
2023/09/11 08:23:23;;;;;;;15.20;13.70;;;23.90;99.90;;;;;;5120279;27;20495;-84
2023/09/11 08:26:25;;;;;;;13.43;12.20;;;23.90;99.90;;;;;;5117567;28;20902;-86
2023/09/11 08:29:38;;;;;;;14.10;12.70;;;24.00;99.90;;;;;;5109645;28;20529;-86
2023/09/11 08:32:13;;;;;;;13.20;12.00;;;24.00;99.90;;;;;;5097618;28;20517;-83
2023/09/11 08:34:40;;;;;;;14.00;12.60;;;24.10;99.90;;;;;;5096443;28;20468;-86
2023/09/11 08:37:14;;;;;;;12.53;11.27;;;24.10;99.90;;;;;;5119194;28;20486;-84
2023/09/11 08:39:47;;;;;;;13.97;12.67;;;24.20;99.90;;;;;;5121874;28;20499;-87
2023/09/11 08:42:26;;;;;;;12.60;11.50;;;24.20;99.90;;;;;;5117145;27;20472;-87
2023/09/11 08:44:54;;;;;;;12.70;11.50;;;24.30;99.90;;;;;;5111861;27;20946;-84
2023/09/11 08:47:29;;;;;;;13.23;12.10;;;24.30;99.90;;;;;;5112554;28;20469;-86
2023/09/11 08:50:04;;;;;;;11.67;10.70;;;24.30;99.90;;;;;;5119362;28;20528;-86
2023/09/11 08:52:37;;;;;;;11.80;10.60;;;24.40;99.90;;;;;;5107336;28;20564;-83
2023/09/11 08:55:11;;;;;;;12.37;10.80;;;24.40;99.90;;;;;;5116663;28;20479;-83
2023/09/11 08:57:43;;;;;;;12.47;11.27;;;24.50;99.90;;;;;;5116202;28;20661;-87
2023/09/11 09:00:19;;;;;;;11.20;10.07;;;24.50;99.90;;;;;;5106327;27;20533;-86
2023/09/11 09:02:58;;;;;;;11.47;10.47;;;24.60;99.90;;;;;;5116912;28;20475;-86
2023/09/11 09:05:27;;;;;;;9.80;8.90;;;24.60;99.90;;;;;;5096909;28;20477;-85
2023/09/11 09:08:20;;;;;;;11.17;10.03;;;24.70;99.90;;;;;;5093128;28;20479;-84
2023/09/11 09:10:57;;;;;;;10.43;9.40;;;24.70;99.90;;;;;;5104965;27;20435;-84
2023/09/11 09:13:29;;;;;;;11.00;10.00;;;24.70;99.90;;;;;;5107259;28;20852;-88
2023/09/11 09:15:56;;;;;;;11.27;10.13;;;24.80;99.90;;;;;;5105403;28;20469;-84
2023/09/11 09:18:29;;;;;;;10.40;9.53;;;24.80;99.90;;;;;;5120556;27;20433;-88
2023/09/11 09:20:56;;;;;;;13.80;9.50;;;24.90;99.90;;;;;;5115737;28;20475;-88
2023/09/11 09:23:33;;;;;;;11.07;10.17;;;24.90;99.90;;;;;;5115880;28;20464;-84
2023/09/11 09:26:09;;;;;;;11.00;10.00;;;25.00;99.90;;;;;;5115147;28;20514;-88
2023/09/11 09:28:44;;;;;;;11.10;9.90;;;25.00;99.90;;;;;;5115760;28;20472;-84
2023/09/11 09:31:15;;;;;;;10.50;9.43;;;25.10;99.90;;;;;;5117207;27;20452;-88
2023/09/11 09:33:46;;;;;;;11.67;9.77;;;25.20;99.90;;;;;;5114122;27;20464;-86
2023/09/11 09:36:20;;;;;;;11.20;10.10;;;25.30;99.90;;;;;;5115602;27;20495;-83
2023/09/11 09:38:47;;;;;;;9.80;9.00;;;25.30;99.90;;;;;;5115921;27;20488;-83
2023/09/11 09:41:16;;;;;;;11.23;10.30;;;25.30;99.90;;;;;;5116454;27;20572;-83
2023/09/11 09:43:53;;;;;;;10.00;9.20;;;25.40;99.90;;;;;;5116393;27;20476;-87
2023/09/11 09:46:21;;;;;;;10.73;9.93;;;25.40;99.90;;;;;;5114484;27;20491;-83
2023/09/11 09:48:51;;;;;;;11.10;10.10;;;25.40;99.90;;;;;;5116290;27;20511;-87
2023/09/11 09:51:30;;;;;;;10.53;9.43;;;25.40;99.90;;;;;;5115267;27;20456;-83
2023/09/11 09:53:59;;;;;;;10.53;9.63;;;25.50;99.90;;;;;;5115532;27;20473;-87
2023/09/11 09:56:28;;;;;;;9.60;8.70;;;25.60;99.90;;;;;;5117434;27;20502;-88
2023/09/11 09:59:02;;;;;;;12.23;11.20;;;25.60;99.90;;;;;;5116250;27;20966;-86
2023/09/11 10:01:29;;;;;;;12.07;10.97;;;25.70;99.90;;;;;;5115954;27;20472;-86
2023/09/11 10:04:04;;;;;;;11.20;10.10;;;25.70;99.90;;;;;;5115596;27;20488;-86
2023/09/11 10:06:32;;;;;;;10.87;9.97;;;25.70;99.90;;;;;;5116176;27;20459;-83
2023/09/11 10:09:15;;;;;;;11.20;10.10;;;25.80;99.90;;;;;;5119769;27;20475;-83
2023/09/11 10:12:40;;;;;;;13.23;12.17;;;25.80;99.90;;;;;;5114682;27;20529;-83
2023/09/11 10:15:10;;;;;;;14.37;12.90;;;25.80;99.90;;;;;;5054278;27;20540;-84
2023/09/11 10:17:40;;;;;;;12.67;11.60;;;25.80;99.90;;;;;;5109513;27;20568;-83
2023/09/11 10:20:27;;;;;;;11.33;10.30;;;25.80;99.90;;;;;;5126375;27;20506;-84
2023/09/11 10:26:12;;;;;;;10.30;9.40;;;25.80;99.90;;;;;;5114961;27;20466;-83
2023/09/11 10:29:07;;;;;;;11.43;10.33;;;25.90;99.90;;;;;;5116194;27;21014;-88
2023/09/11 10:31:58;;;;;;;9.40;8.70;;;25.90;99.90;;;;;;5117853;27;20809;-87
2023/09/11 10:34:36;;;;;;;9.83;9.07;;;26.00;99.90;;;;;;5116799;27;20479;-86
2023/09/11 10:37:42;;;;;;;10.40;9.50;;;26.00;99.90;;;;;;5103771;27;20502;-87
2023/09/11 10:40:25;;;;;;;9.63;8.83;;;26.00;99.90;;;;;;5116405;27;20545;-83
2023/09/11 10:42:52;;;;;;;9.43;8.70;;;26.10;99.90;;;;;;5114247;28;20535;-83
2023/09/11 10:45:29;;;;;;;10.00;9.10;;;26.10;99.90;;;;;;5113152;28;20465;-83
2023/09/11 10:47:56;;;;;;;10.87;9.97;;;26.20;99.90;;;;;;5113323;28;20466;-84
2023/09/11 10:50:27;;;;;;;10.20;9.40;;;26.30;99.90;;;;;;5113445;28;20465;-83
2023/09/11 10:52:58;;;;;;;12.53;11.33;;;26.30;99.90;;;;;;5115230;28;20565;-87
2023/09/11 10:55:28;;;;;;;10.60;9.80;;;26.30;99.90;;;;;;5108616;27;20952;-87
2023/09/11 10:58:05;;;;;;;11.10;10.10;;;26.40;99.90;;;;;;5130915;27;20471;-86
2023/09/11 11:00:52;;;;;;;11.37;10.27;;;26.40;99.90;;;;;;5119549;27;20771;-86
2023/09/11 11:03:29;;;;;;;11.77;10.67;;;26.40;99.90;;;;;;5096461;27;20474;-87
2023/09/11 11:06:00;;;;;;;10.90;10.10;;;26.50;99.90;;;;;;5106156;27;20464;-84
2023/09/11 11:08:32;;;;;;;9.77;8.97;;;26.50;99.90;;;;;;5131242;27;20462;-88
2023/09/11 11:11:02;;;;;;;10.50;9.50;;;26.50;99.90;;;;;;5090565;27;20479;-84
2023/09/11 11:13:30;;;;;;;9.47;8.70;;;26.50;99.90;;;;;;5114821;27;21042;-87
2023/09/11 11:16:24;;;;;;;9.87;9.03;;;26.60;99.90;;;;;;5119455;27;20932;-87
2023/09/11 11:18:55;;;;;;;9.33;8.53;;;26.60;99.90;;;;;;5114104;27;20553;-87
2023/09/11 11:21:37;;;;;;;9.40;8.70;;;26.60;99.90;;;;;;5114784;27;20467;-87
2023/09/11 11:24:05;;;;;;;8.30;7.70;;;26.60;99.90;;;;;;5115327;27;20464;-84
2023/09/11 11:26:37;;;;;;;9.63;8.93;;;26.60;99.90;;;;;;5115186;27;20860;-84
2023/09/11 11:29:05;;;;;;;9.00;8.37;;;26.70;99.90;;;;;;5113380;27;20466;-83
2023/09/11 11:31:54;;;;;;;;;;;;;;;;;;;;;
2023/09/11 11:34:47;;;;;;;9.90;8.93;;;26.70;99.90;;;;;;5078456;27;20470;-84
2023/09/11 11:40:01;;;;;;;15.67;13.70;;;26.70;99.90;;;;;;5095313;28;20937;-83
2023/09/11 11:45:14;;;;;;;13.00;11.47;;;26.70;99.90;;;;;;5116465;27;20480;-84
2023/09/11 11:47:45;;;;;;;11.93;10.40;;;26.70;99.90;;;;;;5115435;27;20465;-84
2023/09/11 11:50:30;;;;;;;11.57;10.50;;;26.70;99.90;;;;;;5119288;27;20499;-84
2023/09/11 11:53:00;;;;;;;11.57;10.47;;;26.70;99.70;;;;;;5103583;27;20469;-83
2023/09/11 11:55:27;;;;;;;11.57;10.47;;;26.70;99.80;;;;;;5133041;27;20856;-83
2023/09/11 11:57:57;;;;;;;10.80;9.70;;;26.70;99.90;;;;;;5130808;27;20475;-83
2023/09/11 12:00:27;;;;;;;11.57;9.40;;;26.70;99.90;;;;;;5120137;27;20532;-84
2023/09/11 12:03:03;;;;;;;10.43;9.43;;;26.70;99.90;;;;;;5122143;27;20472;-83
2023/09/11 12:05:30;;;;;;;13.13;10.50;;;26.70;99.90;;;;;;5117828;27;20553;-83
2023/09/11 12:07:57;;;;;;;11.80;9.10;;;26.70;99.90;;;;;;5118257;27;20469;-84
2023/09/11 12:10:25;;;;;;;8.80;8.00;;;26.70;99.60;;;;;;5118106;27;20470;-82
2023/09/11 12:12:52;;;;;;;9.70;8.63;;;26.70;98.60;;;;;;5118578;27;20458;-83
2023/09/11 12:15:32;;;;;;;10.07;9.17;;;26.70;98.40;;;;;;5119043;27;20470;-88
2023/09/11 12:18:00;;;;;;;9.20;8.50;;;26.80;98.80;;;;;;5130829;27;20451;-88
2023/09/11 12:20:27;;;;;;;9.83;8.73;;;26.80;99.10;;;;;;5139315;27;20475;-87
2023/09/11 12:22:54;;;;;;;8.80;7.70;;;26.80;98.80;;;;;;5133632;27;20479;-87
2023/09/11 12:25:51;;;;;;;8.90;8.20;;;26.80;97.30;;;;;;5125946;27;20474;-81
2023/09/11 12:28:19;;;;;;;8.60;7.50;;;26.80;97.30;;;;;;5083659;27;20463;-87
2023/09/11 12:31:37;;;;;;;;;;;;;;;;;;;;;
2023/09/11 12:34:12;;;;;;;8.33;7.53;;;26.90;97.20;;;;;;5113389;27;21176;-87
2023/09/11 12:37:15;;;;;;;8.50;7.80;;;26.90;96.90;;;;;;5126853;27;20503;-85
2023/09/11 12:39:42;;;;;;;10.13;8.20;;;26.90;97.00;;;;;;5113839;27;20454;-83
2023/09/11 12:42:15;;;;;;;8.47;7.63;;;26.90;94.90;;;;;;5110688;27;20460;-87
2023/09/11 12:44:43;;;;;;;7.47;6.80;;;26.90;95.30;;;;;;5124770;27;20464;-88
2023/09/11 12:47:14;;;;;;;9.37;7.60;;;27.00;96.00;;;;;;5118140;27;20475;-85
2023/09/11 12:50:14;;;;;;;8.73;7.73;;;27.00;96.30;;;;;;5109251;27;20567;-86
2023/09/11 12:52:41;;;;;;;9.23;8.13;;;27.00;96.40;;;;;;5077658;28;20583;-87
2023/09/11 12:55:18;;;;;;;9.87;8.87;;;26.90;96.00;;;;;;5176050;22;20463;-86
2023/09/11 12:57:49;;;;;;;10.57;7.93;;;27.00;95.90;;;;;;5053206;28;20471;-84
2023/09/11 13:00:17;;;;;;;9.83;8.40;;;26.90;95.80;;;;;;5062670;28;20477;-87
2023/09/11 13:02:47;;;;;;;8.73;7.93;;;26.90;95.70;;;;;;5063092;28;20479;-87
2023/09/11 13:05:15;;;;;;;9.33;7.57;;;27.00;95.70;;;;;;5042297;28;20484;-88
2023/09/11 13:07:42;;;;;;;8.10;7.50;;;26.90;95.90;;;;;;5058405;28;20601;-84
2023/09/11 13:10:10;;;;;;;8.07;7.07;;;26.90;96.00;;;;;;5059143;28;20481;-84
2023/09/11 13:12:39;;;;;;;8.80;7.97;;;26.90;96.10;;;;;;5057432;28;20474;-88
2023/09/11 13:15:07;;;;;;;8.90;8.20;;;26.90;96.00;;;;;;5059229;28;20469;-87
2023/09/11 13:17:37;;;;;;;8.33;6.67;;;26.90;96.00;;;;;;5045106;28;20787;-88
2023/09/11 13:20:08;;;;;;;7.93;7.17;;;26.90;95.90;;;;;;5058589;28;20481;-88
2023/09/11 13:22:35;;;;;;;11.50;7.63;;;26.90;95.90;;;;;;5059228;28;20474;-88
2023/09/11 13:25:03;;;;;;;7.47;6.80;;;26.90;95.80;;;;;;5050509;28;20844;-84
2023/09/11 13:27:31;;;;;;;7.60;7.00;;;26.90;95.60;;;;;;5072563;28;20466;-84
2023/09/11 13:30:07;;;;;;;7.10;6.50;;;26.90;95.80;;;;;;5057449;28;20472;-88
2023/09/11 13:32:34;;;;;;;7.07;6.47;;;26.90;95.90;;;;;;5057022;28;20844;-87
2023/09/11 13:35:01;;;;;;;7.33;6.73;;;26.80;96.00;;;;;;5055602;28;20460;-84
2023/09/11 13:37:36;;;;;;;7.07;6.47;;;26.80;96.10;;;;;;5049236;28;20512;-86
2023/09/11 13:40:06;;;;;;;9.57;8.73;;;26.80;96.20;;;;;;5061136;28;20538;-84